Time;durP1;ratioP1;P1;durP2;ratioP2;P2;SDS_P1;SDS_P2;PMS_P1;PMS_P2;Temp;Humidity;BMP_temperature;BMP_pressure;BME280_temperature;BME280_humidity;BME280_pressure;Samples;Min_cycle;Max_cycle;Signal;HPM_P1;HPM_P2
2022/12/23 00:00:56;;;;;;;3.08;1.45;;;;;;;;;;4993966;28;20514;-67
2022/12/23 00:03:23;;;;;;;5.00;1.75;;;;;;;;;;4994518;28;20048;-61
2022/12/23 00:05:49;;;;;;;6.65;1.55;;;;;;;;;;4995236;28;20053;-61
2022/12/23 00:08:15;;;;;;;2.85;1.63;;;;;;;;;;4998416;28;20042;-61
2022/12/23 00:10:41;;;;;;;5.68;1.75;;;;;;;;;;4997952;28;20484;-58
2022/12/23 00:16:13;;;;;;;3.00;1.45;;;;;;;;;;4994170;28;20080;-61
2022/12/23 00:18:39;;;;;;;2.03;1.20;;;;;;;;;;4997582;28;20057;-61
2022/12/23 00:21:08;;;;;;;3.78;1.48;;;;;;;;;;5001389;28;20108;-60
2022/12/23 00:23:37;;;;;;;2.67;1.40;;;;;;;;;;4997273;28;20053;-61
2022/12/23 00:26:03;;;;;;;4.88;1.50;;;;;;;;;;4997896;28;20053;-62
2022/12/23 00:28:30;;;;;;;3.38;1.70;;;;;;;;;;4996994;28;20034;-60
2022/12/23 00:31:08;;;;;;;2.45;1.48;;;;;;;;;;5000843;28;20053;-62
2022/12/23 00:33:37;;;;;;;2.78;1.30;;;;;;;;;;4996443;28;20571;-61
2022/12/23 00:36:29;;;;;;;5.45;1.52;;;;;;;;;;4998704;28;20267;-59
2022/12/23 00:44:27;;;;;;;2.95;1.52;;;;;;;;;;4998909;28;20041;-61
2022/12/23 00:46:52;;;;;;;2.15;1.30;;;;;;;;;;5001402;28;20444;-63
2022/12/23 00:52:06;;;;;;;2.70;1.50;;;;;;;;;;4999426;28;20065;-64
2022/12/23 00:54:33;;;;;;;3.25;1.20;;;;;;;;;;4994495;28;20050;-62
2022/12/23 00:56:59;;;;;;;3.03;1.33;;;;;;;;;;4983805;28;20060;-62
2022/12/23 00:59:25;;;;;;;3.80;1.40;;;;;;;;;;5000604;28;20540;-60
2022/12/23 01:07:20;;;;;;;7.90;1.67;;;;;;;;;;5002059;28;19922;-62
2022/12/23 01:09:46;;;;;;;2.25;1.30;;;;;;;;;;4998300;28;20058;-60
2022/12/23 01:12:12;;;;;;;2.20;1.15;;;;;;;;;;5000118;28;20060;-62
2022/12/23 01:14:39;;;;;;;3.08;1.20;;;;;;;;;;4997114;28;20068;-60
2022/12/23 01:17:06;;;;;;;2.78;1.30;;;;;;;;;;5000999;28;20053;-61
2022/12/23 01:19:33;;;;;;;4.72;1.40;;;;;;;;;;4999720;28;20084;-61
2022/12/23 01:21:58;;;;;;;3.78;1.35;;;;;;;;;;4999185;28;20093;-63
2022/12/23 01:24:29;;;;;;;3.58;1.38;;;;;;;;;;4997231;28;20157;-61
2022/12/23 01:26:55;;;;;;;3.10;1.48;;;;;;;;;;5000886;28;20053;-61
2022/12/23 01:29:21;;;;;;;4.82;1.25;;;;;;;;;;4998169;28;20061;-60
2022/12/23 01:31:47;;;;;;;3.45;1.35;;;;;;;;;;5002980;28;20050;-59
2022/12/23 01:34:13;;;;;;;2.03;1.20;;;;;;;;;;5000189;28;20068;-61
2022/12/23 01:36:39;;;;;;;1.88;1.05;;;;;;;;;;5000907;28;20061;-62
2022/12/23 01:39:05;;;;;;;2.65;1.20;;;;;;;;;;4995661;28;20054;-61
2022/12/23 01:44:55;;;;;;;1.85;1.02;;;;;;;;;;4997355;28;20551;-63
2022/12/23 01:47:35;;;;;;;3.22;1.13;;;;;;;;;;4998809;28;20140;-59
2022/12/23 01:50:22;;;;;;;1.95;1.10;;;;;;;;;;4999721;28;20058;-60
2022/12/23 01:53:20;;;;;;;3.33;1.40;;;;;;;;;;4998664;28;20038;-60
2022/12/23 01:55:49;;;;;;;1.95;1.23;;;;;;;;;;4955246;28;20053;-58
2022/12/23 01:58:19;;;;;;;1.75;1.20;;;;;;;;;;4981163;28;20050;-62
2022/12/23 02:03:42;;;;;;;1.98;1.20;;;;;;;;;;4997603;28;20638;-59
2022/12/23 02:09:18;;;;;;;2.03;1.08;;;;;;;;;;5001626;28;20046;-59
2022/12/23 02:11:59;;;;;;;3.28;0.98;;;;;;;;;;5001683;28;20378;-61
2022/12/23 02:17:35;;;;;;;2.00;0.90;;;;;;;;;;4999102;28;20073;-59
2022/12/23 02:20:22;;;;;;;2.65;1.17;;;;;;;;;;4997968;28;20133;-59
2022/12/23 02:23:18;;;;;;;2.33;1.17;;;;;;;;;;4997949;28;20493;-60
2022/12/23 02:25:55;;;;;;;2.17;1.10;;;;;;;;;;4996916;28;20046;-59
2022/12/23 02:28:40;;;;;;;1.90;1.00;;;;;;;;;;4996480;28;20504;-61
2022/12/23 02:31:20;;;;;;;2.80;0.90;;;;;;;;;;4999561;28;20916;-59
2022/12/23 02:34:16;;;;;;;2.75;1.23;;;;;;;;;;4997567;28;20070;-59
2022/12/23 02:37:03;;;;;;;2.05;1.00;;;;;;;;;;4997834;28;21503;-59
2022/12/23 02:39:50;;;;;;;1.23;1.00;;;;;;;;;;4997430;28;20076;-59
2022/12/23 02:42:21;;;;;;;1.80;0.98;;;;;;;;;;4997869;28;20493;-59
2022/12/23 02:45:08;;;;;;;1.35;1.00;;;;;;;;;;4996272;28;20095;-58
2022/12/23 02:47:39;;;;;;;2.28;1.02;;;;;;;;;;4998678;28;20054;-60
2022/12/23 02:50:13;;;;;;;2.65;1.27;;;;;;;;;;4995557;28;20054;-59
2022/12/23 02:52:41;;;;;;;3.55;1.13;;;;;;;;;;4999697;28;20065;-61
2022/12/23 02:55:14;;;;;;;2.85;1.15;;;;;;;;;;4996736;28;20054;-59
2022/12/23 02:57:44;;;;;;;1.58;1.05;;;;;;;;;;4999565;28;20050;-59
2022/12/23 03:00:11;;;;;;;1.70;1.10;;;;;;;;;;4995508;28;20437;-62
2022/12/23 03:02:39;;;;;;;2.63;1.10;;;;;;;;;;4997005;28;20053;-59
2022/12/23 03:05:21;;;;;;;1.67;0.93;;;;;;;;;;4996558;28;20240;-61
2022/12/23 03:07:47;;;;;;;2.45;1.20;;;;;;;;;;4996749;28;20120;-59
2022/12/23 03:10:51;;;;;;;1.08;0.85;;;;;;;;;;4999514;28;20045;-61
2022/12/23 03:13:25;;;;;;;4.30;1.05;;;;;;;;;;4998962;28;20132;-58
2022/12/23 03:16:21;;;;;;;2.70;1.38;;;;;;;;;;4996606;28;20409;-59
2022/12/23 03:19:11;;;;;;;5.30;1.30;;;;;;;;;;4980279;28;20413;-57
2022/12/23 03:21:46;;;;;;;1.02;0.90;;;;;;;;;;4997830;28;20441;-64
2022/12/23 03:24:30;;;;;;;2.92;1.10;;;;;;;;;;4995965;28;20141;-59
2022/12/23 03:26:59;;;;;;;2.97;1.10;;;;;;;;;;4998309;28;20057;-62
2022/12/23 03:29:38;;;;;;;4.13;1.30;;;;;;;;;;4998187;28;20595;-59
2022/12/23 03:32:06;;;;;;;0.93;0.82;;;;;;;;;;4998364;28;20050;-59
2022/12/23 03:34:37;;;;;;;1.77;1.08;;;;;;;;;;4996860;28;20050;-60
2022/12/23 03:37:07;;;;;;;1.70;0.90;;;;;;;;;;4998994;28;21124;-64
2022/12/23 03:39:45;;;;;;;2.72;1.10;;;;;;;;;;4998904;28;20238;-61
2022/12/23 03:42:29;;;;;;;1.55;1.15;;;;;;;;;;4995758;28;20058;-61
2022/12/23 03:44:57;;;;;;;3.10;1.10;;;;;;;;;;4996408;28;20054;-65
2022/12/23 03:47:29;;;;;;;1.60;1.10;;;;;;;;;;4997133;28;20386;-62
2022/12/23 03:50:02;;;;;;;2.10;0.93;;;;;;;;;;4996085;28;20501;-59
2022/12/23 03:52:42;;;;;;;2.50;1.10;;;;;;;;;;5000602;28;20437;-61
2022/12/23 03:55:16;;;;;;;1.90;1.15;;;;;;;;;;5005059;28;20048;-60
2022/12/23 03:57:57;;;;;;;3.00;1.20;;;;;;;;;;5006102;28;20057;-60
2022/12/23 04:00:26;;;;;;;1.45;1.10;;;;;;;;;;4999601;28;20760;-60
2022/12/23 04:03:24;;;;;;;1.42;1.02;;;;;;;;;;5004517;28;20045;-61
2022/12/23 04:05:57;;;;;;;2.05;1.00;;;;;;;;;;4973000;28;20599;-59
2022/12/23 04:08:34;;;;;;;2.75;1.20;;;;;;;;;;5007543;28;20508;-59
2022/12/23 04:11:00;;;;;;;3.03;1.60;;;;;;;;;;5008755;28;20046;-59
2022/12/23 04:13:27;;;;;;;1.77;1.20;;;;;;;;;;5007325;28;20049;-59
2022/12/23 04:15:53;;;;;;;1.83;1.10;;;;;;;;;;5001885;28;20088;-62
2022/12/23 04:18:19;;;;;;;2.85;1.20;;;;;;;;;;5007686;28;20756;-58
2022/12/23 04:20:45;;;;;;;1.92;1.05;;;;;;;;;;5005603;28;20050;-60
2022/12/23 04:23:11;;;;;;;2.03;1.20;;;;;;;;;;5007867;28;20068;-60
2022/12/23 04:25:36;;;;;;;2.45;1.10;;;;;;;;;;5003785;28;20292;-58
2022/12/23 04:28:03;;;;;;;2.45;1.10;;;;;;;;;;5007258;28;20417;-59
2022/12/23 04:30:28;;;;;;;2.95;1.10;;;;;;;;;;5005619;28;20042;-59
2022/12/23 04:32:54;;;;;;;2.65;1.00;;;;;;;;;;5003871;28;20132;-59
2022/12/23 04:35:21;;;;;;;4.20;1.20;;;;;;;;;;5002577;28;20117;-60
2022/12/23 04:37:47;;;;;;;2.05;1.25;;;;;;;;;;5007448;28;20053;-60
2022/12/23 04:40:13;;;;;;;1.50;0.98;;;;;;;;;;5004261;28;20046;-58
2022/12/23 04:42:39;;;;;;;2.33;1.20;;;;;;;;;;5005002;28;20509;-59
2022/12/23 04:45:05;;;;;;;2.65;1.10;;;;;;;;;;5001204;28;20056;-60
2022/12/23 04:47:31;;;;;;;2.47;1.05;;;;;;;;;;5005526;28;20046;-60
2022/12/23 04:49:57;;;;;;;1.50;0.98;;;;;;;;;;5001890;28;20042;-59
2022/12/23 04:52:23;;;;;;;2.42;1.17;;;;;;;;;;4985736;28;20042;-62
2022/12/23 04:54:49;;;;;;;2.63;0.95;;;;;;;;;;5003401;28;20116;-59
2022/12/23 04:57:15;;;;;;;3.20;1.33;;;;;;;;;;5006347;28;20054;-64
2022/12/23 04:59:41;;;;;;;3.42;1.17;;;;;;;;;;5006055;28;20065;-61
2022/12/23 05:02:07;;;;;;;6.05;1.02;;;;;;;;;;5004399;28;20046;-61
2022/12/23 05:04:33;;;;;;;1.75;1.20;;;;;;;;;;4999172;28;20046;-62
2022/12/23 05:06:59;;;;;;;4.90;0.95;;;;;;;;;;4999328;28;20501;-61
2022/12/23 05:09:25;;;;;;;3.90;0.90;;;;;;;;;;5001098;28;20061;-61
2022/12/23 05:11:51;;;;;;;1.77;1.05;;;;;;;;;;5002572;28;20072;-66
2022/12/23 05:14:17;;;;;;;4.00;1.17;;;;;;;;;;4998499;28;21217;-67
2022/12/23 05:16:43;;;;;;;2.20;1.15;;;;;;;;;;5000940;28;20050;-61
2022/12/23 05:19:09;;;;;;;1.63;0.95;;;;;;;;;;4999429;28;20490;-62
2022/12/23 05:21:36;;;;;;;1.60;1.00;;;;;;;;;;4999500;28;20306;-60
2022/12/23 05:24:02;;;;;;;4.40;0.90;;;;;;;;;;4999794;28;20128;-61
2022/12/23 05:26:28;;;;;;;1.83;1.25;;;;;;;;;;5001626;28;20092;-62
2022/12/23 05:28:54;;;;;;;1.20;1.10;;;;;;;;;;5002191;28;20481;-62
2022/12/23 05:31:20;;;;;;;1.60;0.93;;;;;;;;;;4999002;28;20461;-58
2022/12/23 05:33:46;;;;;;;2.22;1.00;;;;;;;;;;4996579;28;20076;-61
2022/12/23 05:36:12;;;;;;;3.83;1.10;;;;;;;;;;4998806;28;20255;-61
2022/12/23 05:38:38;;;;;;;1.13;0.80;;;;;;;;;;4994326;28;20862;-61
2022/12/23 05:41:04;;;;;;;2.40;1.25;;;;;;;;;;4980468;28;20112;-62
2022/12/23 05:43:30;;;;;;;1.88;1.00;;;;;;;;;;4997122;28;20050;-59
2022/12/23 05:45:57;;;;;;;3.72;0.95;;;;;;;;;;4997824;28;20053;-60
2022/12/23 05:48:23;;;;;;;2.13;1.20;;;;;;;;;;4999031;28;20042;-62
2022/12/23 05:50:50;;;;;;;1.55;1.10;;;;;;;;;;4993474;28;20050;-61
2022/12/23 05:53:17;;;;;;;2.10;0.95;;;;;;;;;;4993936;28;20144;-61
2022/12/23 05:55:43;;;;;;;1.85;1.05;;;;;;;;;;4998757;28;20108;-60
2022/12/23 05:58:09;;;;;;;1.42;0.90;;;;;;;;;;4997205;28;20046;-59
2022/12/23 06:00:35;;;;;;;2.47;1.10;;;;;;;;;;5001837;28;20107;-62
2022/12/23 06:03:01;;;;;;;4.38;1.40;;;;;;;;;;4998853;28;20053;-62
2022/12/23 06:05:28;;;;;;;4.15;1.20;;;;;;;;;;5000946;28;20559;-58
2022/12/23 06:07:53;;;;;;;5.53;1.00;;;;;;;;;;4997606;28;20046;-61
2022/12/23 06:10:19;;;;;;;1.90;1.00;;;;;;;;;;4993218;28;20088;-59
2022/12/23 06:12:45;;;;;;;1.00;0.90;;;;;;;;;;4996451;28;20052;-63
2022/12/23 06:15:11;;;;;;;2.55;1.10;;;;;;;;;;4995006;28;20050;-59
2022/12/23 06:17:37;;;;;;;1.67;1.10;;;;;;;;;;4980212;28;20057;-58
2022/12/23 06:20:04;;;;;;;3.35;0.93;;;;;;;;;;4998759;28;20512;-60
2022/12/23 06:22:30;;;;;;;3.17;1.27;;;;;;;;;;4997424;28;20065;-61
2022/12/23 06:24:56;;;;;;;3.05;1.15;;;;;;;;;;4995400;28;20084;-60
2022/12/23 06:27:22;;;;;;;4.70;1.30;;;;;;;;;;4987730;28;20100;-63
2022/12/23 06:29:48;;;;;;;3.55;1.02;;;;;;;;;;4993021;28;20077;-61
2022/12/23 06:32:13;;;;;;;4.82;1.00;;;;;;;;;;4995491;28;20827;-59
2022/12/23 06:34:39;;;;;;;2.25;1.00;;;;;;;;;;4994342;28;20053;-60
2022/12/23 06:37:05;;;;;;;1.20;0.95;;;;;;;;;;4995035;28;20049;-64
2022/12/23 06:39:31;;;;;;;4.85;1.83;;;;;;;;;;4995126;28;20046;-64
2022/12/23 06:41:57;;;;;;;1.33;0.73;;;;;;;;;;4976152;28;20069;-61
2022/12/23 06:44:23;;;;;;;4.05;1.10;;;;;;;;;;4987311;28;21455;-62
2022/12/23 06:46:49;;;;;;;3.38;1.30;;;;;;;;;;4993361;28;20093;-61
2022/12/23 06:49:15;;;;;;;1.77;1.10;;;;;;;;;;4999403;28;20127;-64
2022/12/23 06:51:41;;;;;;;2.75;0.90;;;;;;;;;;4996015;28;20046;-62
2022/12/23 06:54:10;;;;;;;1.83;0.95;;;;;;;;;;4986035;28;20066;-63
2022/12/23 06:56:36;;;;;;;3.33;0.93;;;;;;;;;;4996026;28;20792;-67
2022/12/23 06:59:02;;;;;;;2.00;1.00;;;;;;;;;;4995829;28;20046;-61
2022/12/23 07:01:28;;;;;;;2.30;1.00;;;;;;;;;;4996517;28;20166;-64
2022/12/23 07:03:54;;;;;;;2.88;1.00;;;;;;;;;;4993162;28;20057;-61
2022/12/23 07:06:20;;;;;;;4.15;1.17;;;;;;;;;;4994795;28;20054;-61
2022/12/23 07:08:46;;;;;;;2.05;1.30;;;;;;;;;;4995387;28;20053;-61
2022/12/23 07:11:12;;;;;;;1.77;1.00;;;;;;;;;;4994650;28;20053;-61
2022/12/23 07:13:38;;;;;;;2.25;1.05;;;;;;;;;;4994338;28;20045;-61
2022/12/23 07:16:08;;;;;;;1.75;1.10;;;;;;;;;;4993408;28;20058;-60
2022/12/23 07:18:34;;;;;;;7.28;1.20;;;;;;;;;;4994296;28;20159;-63
2022/12/23 07:21:01;;;;;;;2.78;0.93;;;;;;;;;;4997163;28;20058;-59
2022/12/23 07:23:28;;;;;;;1.88;1.23;;;;;;;;;;4993050;28;20516;-60
2022/12/23 07:25:54;;;;;;;3.42;1.00;;;;;;;;;;4994852;28;20045;-61
2022/12/23 07:28:21;;;;;;;2.15;1.20;;;;;;;;;;4997022;28;20046;-59
2022/12/23 07:30:47;;;;;;;2.88;1.13;;;;;;;;;;4991866;28;20054;-61
2022/12/23 07:33:13;;;;;;;1.80;1.17;;;;;;;;;;4992201;28;20200;-61
2022/12/23 07:35:42;;;;;;;3.78;1.55;;;;;;;;;;4994374;28;20050;-64
2022/12/23 07:38:09;;;;;;;4.10;1.30;;;;;;;;;;4995536;28;20111;-60
2022/12/23 07:40:35;;;;;;;5.90;1.17;;;;;;;;;;4970553;28;20097;-64
2022/12/23 07:43:02;;;;;;;5.03;1.40;;;;;;;;;;4986538;28;20325;-62
2022/12/23 07:45:29;;;;;;;5.30;1.40;;;;;;;;;;4996569;28;20054;-61
2022/12/23 07:47:57;;;;;;;1.98;1.38;;;;;;;;;;4995358;28;20240;-68
2022/12/23 07:50:24;;;;;;;2.67;1.13;;;;;;;;;;4996374;28;20046;-61
2022/12/23 07:52:52;;;;;;;4.35;1.27;;;;;;;;;;4995170;28;20116;-62
2022/12/23 07:55:18;;;;;;;4.07;1.17;;;;;;;;;;4985983;28;20137;-61
2022/12/23 07:57:49;;;;;;;1.90;0.90;;;;;;;;;;4994782;28;20057;-63
2022/12/23 08:00:15;;;;;;;8.60;1.20;;;;;;;;;;4999954;28;20038;-59
2022/12/23 08:02:42;;;;;;;4.57;1.17;;;;;;;;;;4994394;28;20046;-60
2022/12/23 08:05:09;;;;;;;1.48;0.85;;;;;;;;;;4974585;28;20253;-61
2022/12/23 08:07:35;;;;;;;1.77;0.90;;;;;;;;;;4994678;28;20156;-61
2022/12/23 08:10:01;;;;;;;2.00;0.80;;;;;;;;;;4997101;28;20187;-60
2022/12/23 08:12:27;;;;;;;1.65;0.80;;;;;;;;;;4995550;28;20053;-62
2022/12/23 08:14:53;;;;;;;3.75;0.80;;;;;;;;;;4993967;28;20046;-61
2022/12/23 08:17:22;;;;;;;2.15;1.00;;;;;;;;;;4996978;28;20057;-63
2022/12/23 08:19:48;;;;;;;2.08;0.90;;;;;;;;;;4995139;28;20058;-63
2022/12/23 08:22:14;;;;;;;2.45;0.93;;;;;;;;;;4996687;28;20116;-63
2022/12/23 08:24:40;;;;;;;0.90;0.85;;;;;;;;;;4991061;28;20061;-60
2022/12/23 08:27:06;;;;;;;3.33;1.08;;;;;;;;;;4996566;28;20562;-60
2022/12/23 08:29:32;;;;;;;1.40;0.80;;;;;;;;;;4997376;28;20284;-63
2022/12/23 08:31:58;;;;;;;1.05;0.70;;;;;;;;;;4995660;28;20508;-63
2022/12/23 08:34:24;;;;;;;3.17;1.10;;;;;;;;;;4993035;28;20049;-59
2022/12/23 08:36:51;;;;;;;2.58;0.73;;;;;;;;;;4997847;28;20648;-61
2022/12/23 08:39:17;;;;;;;2.45;0.98;;;;;;;;;;4998561;28;20117;-63
2022/12/23 08:41:46;;;;;;;2.15;1.02;;;;;;;;;;5000091;28;20836;-61
2022/12/23 08:44:14;;;;;;;2.10;0.80;;;;;;;;;;4996544;28;20099;-61
2022/12/23 08:46:41;;;;;;;1.10;0.73;;;;;;;;;;4999197;28;20073;-64
2022/12/23 08:49:07;;;;;;;1.50;0.70;;;;;;;;;;4996865;28;20489;-61
2022/12/23 08:51:34;;;;;;;3.08;1.13;;;;;;;;;;5000218;28;20049;-61
2022/12/23 08:54:01;;;;;;;2.47;0.80;;;;;;;;;;5001823;28;20137;-60
2022/12/23 08:56:31;;;;;;;1.38;0.70;;;;;;;;;;5006211;28;20054;-65
2022/12/23 08:58:57;;;;;;;4.97;0.95;;;;;;;;;;5000323;28;20494;-60
2022/12/23 09:01:25;;;;;;;2.63;1.00;;;;;;;;;;4984954;28;20077;-64
2022/12/23 09:03:52;;;;;;;4.40;1.23;;;;;;;;;;5002080;28;20150;-60
2022/12/23 09:06:23;;;;;;;3.65;0.90;;;;;;;;;;4993769;28;20053;-57
2022/12/23 09:08:50;;;;;;;1.65;0.80;;;;;;;;;;4992854;28;20069;-63
2022/12/23 09:11:20;;;;;;;2.35;0.70;;;;;;;;;;4994237;28;20042;-61
2022/12/23 09:13:46;;;;;;;2.25;0.60;;;;;;;;;;5003061;28;20057;-58
2022/12/23 09:16:13;;;;;;;1.02;0.73;;;;;;;;;;4996846;28;20042;-61
2022/12/23 09:18:40;;;;;;;3.10;0.75;;;;;;;;;;4997436;28;20413;-61
2022/12/23 09:21:10;;;;;;;3.38;0.70;;;;;;;;;;4993428;28;20050;-63
2022/12/23 09:23:36;;;;;;;1.65;0.75;;;;;;;;;;4996087;28;20078;-61
2022/12/23 09:26:06;;;;;;;2.20;0.80;;;;;;;;;;4994461;28;20355;-62
2022/12/23 09:28:32;;;;;;;1.17;0.90;;;;;;;;;;4999395;28;20697;-63
2022/12/23 09:31:06;;;;;;;7.68;1.20;;;;;;;;;;5006556;28;20042;-63
2022/12/23 09:33:32;;;;;;;0.60;0.60;;;;;;;;;;5002896;28;20065;-61
2022/12/23 09:35:59;;;;;;;4.43;1.00;;;;;;;;;;5000394;28;20046;-62
2022/12/23 09:38:25;;;;;;;5.05;0.80;;;;;;;;;;5003747;28;20546;-67
2022/12/23 09:40:51;;;;;;;1.20;0.70;;;;;;;;;;5005060;28;20088;-63
2022/12/23 09:43:23;;;;;;;2.58;1.00;;;;;;;;;;5005499;28;20060;-59
2022/12/23 09:46:14;;;;;;;3.53;0.90;;;;;;;;;;5004056;28;20528;-59
2022/12/23 09:48:46;;;;;;;1.80;0.93;;;;;;;;;;4999484;28;20041;-61
2022/12/23 09:51:14;;;;;;;3.47;0.80;;;;;;;;;;4997140;28;20141;-58
2022/12/23 09:54:02;;;;;;;4.63;0.98;;;;;;;;;;5001979;28;20046;-60
2022/12/23 09:57:22;;;;;;;5.25;1.10;;;;;;;;;;4997128;28;20485;-61
2022/12/23 10:00:09;;;;;;;3.30;0.93;;;;;;;;;;4949834;28;20141;-63
2022/12/23 10:02:50;;;;;;;1.48;0.80;;;;;;;;;;4953242;28;20059;-65
2022/12/23 10:05:19;;;;;;;1.85;0.93;;;;;;;;;;4952059;28;20493;-63
2022/12/23 10:08:08;;;;;;;4.70;1.00;;;;;;;;;;4954895;28;20078;-64
2022/12/23 10:10:41;;;;;;;1.35;0.98;;;;;;;;;;4950613;28;20043;-60
2022/12/23 10:13:25;;;;;;;1.13;0.73;;;;;;;;;;4952793;28;20125;-62
2022/12/23 10:15:53;;;;;;;1.10;0.70;;;;;;;;;;4955474;28;20051;-66
2022/12/23 10:18:54;;;;;;;4.18;0.93;;;;;;;;;;4962019;28;20129;-61
2022/12/23 10:21:35;;;;;;;2.92;0.80;;;;;;;;;;4952705;28;20126;-63
2022/12/23 10:24:10;;;;;;;2.17;1.15;;;;;;;;;;4958718;28;20567;-62
2022/12/23 10:26:47;;;;;;;2.65;0.80;;;;;;;;;;4955970;28;20147;-63
2022/12/23 10:29:17;;;;;;;2.05;0.80;;;;;;;;;;4954832;28;20473;-64
2022/12/23 10:32:17;;;;;;;2.35;0.85;;;;;;;;;;4955951;28;20566;-65
2022/12/23 10:35:10;;;;;;;2.20;0.95;;;;;;;;;;4996531;28;20054;-65
2022/12/23 10:37:54;;;;;;;1.20;0.80;;;;;;;;;;4987236;28;20050;-64
2022/12/23 10:40:39;;;;;;;1.52;0.93;;;;;;;;;;4999242;28;20108;-63
2022/12/23 10:43:30;;;;;;;2.25;1.05;;;;;;;;;;4994803;28;20073;-68
2022/12/23 10:46:34;;;;;;;5.55;0.85;;;;;;;;;;5001910;28;20046;-64
2022/12/23 10:49:22;;;;;;;1.60;0.93;;;;;;;;;;4982533;28;21155;-75
2022/12/23 10:52:02;;;;;;;3.50;0.82;;;;;;;;;;4998331;28;20532;-62
2022/12/23 10:54:34;;;;;;;3.45;0.70;;;;;;;;;;4993935;28;20497;-65
2022/12/23 10:57:02;;;;;;;1.80;1.00;;;;;;;;;;4988301;28;20054;-67
2022/12/23 10:59:30;;;;;;;4.35;0.90;;;;;;;;;;4996755;28;20137;-65
2022/12/23 11:02:09;;;;;;;6.57;1.08;;;;;;;;;;4974599;28;20307;-65
2022/12/23 11:04:40;;;;;;;4.68;1.00;;;;;;;;;;4996396;28;20050;-60
2022/12/23 11:07:28;;;;;;;3.22;0.90;;;;;;;;;;5003117;28;20045;-61
2022/12/23 11:10:03;;;;;;;7.05;0.85;;;;;;;;;;4996728;28;20080;-61
2022/12/23 11:12:38;;;;;;;0.82;0.60;;;;;;;;;;4984920;28;20046;-63
2022/12/23 11:15:05;;;;;;;2.65;1.10;;;;;;;;;;4996120;28;20050;-64
2022/12/23 11:17:33;;;;;;;6.30;1.10;;;;;;;;;;4985023;28;20801;-63
2022/12/23 11:20:19;;;;;;;3.90;0.90;;;;;;;;;;4993063;28;20054;-64
2022/12/23 11:22:49;;;;;;;2.83;0.98;;;;;;;;;;4997462;28;20127;-60
2022/12/23 11:25:29;;;;;;;2.13;1.02;;;;;;;;;;4989472;28;20042;-61
2022/12/23 11:28:09;;;;;;;2.67;0.90;;;;;;;;;;5000272;28;20053;-61
2022/12/23 11:30:54;;;;;;;1.42;1.08;;;;;;;;;;4983077;28;20111;-64
2022/12/23 11:33:44;;;;;;;4.13;1.33;;;;;;;;;;4971692;28;20058;-66
2022/12/23 11:36:22;;;;;;;1.60;0.90;;;;;;;;;;4983954;28;20144;-65
2022/12/23 11:39:00;;;;;;;1.92;0.95;;;;;;;;;;4997018;28;20058;-63
2022/12/23 11:41:29;;;;;;;2.15;0.93;;;;;;;;;;5000217;28;20133;-64
2022/12/23 11:43:57;;;;;;;1.83;0.90;;;;;;;;;;4979530;28;20279;-63
2022/12/23 11:46:26;;;;;;;1.80;0.90;;;;;;;;;;4986415;28;20042;-60
2022/12/23 11:49:17;;;;;;;5.43;1.52;;;;;;;;;;4999321;28;20517;-65
2022/12/23 11:52:13;;;;;;;3.22;1.10;;;;;;;;;;4993209;28;20141;-65
2022/12/23 11:54:40;;;;;;;5.72;0.90;;;;;;;;;;4983821;28;20057;-64
2022/12/23 11:57:16;;;;;;;3.67;1.23;;;;;;;;;;4996520;28;20061;-64
2022/12/23 11:59:50;;;;;;;5.07;1.10;;;;;;;;;;5003582;28;20120;-67
2022/12/23 12:02:35;;;;;;;3.05;1.00;;;;;;;;;;4988579;28;20042;-64
2022/12/23 12:05:29;;;;;;;2.90;1.15;;;;;;;;;;4999830;28;20481;-65
2022/12/23 12:08:02;;;;;;;4.53;0.95;;;;;;;;;;4995347;28;20053;-63
2022/12/23 12:10:33;;;;;;;5.05;1.00;;;;;;;;;;5000511;28;20042;-63
2022/12/23 12:13:06;;;;;;;1.17;0.90;;;;;;;;;;5002190;28;20084;-64
2022/12/23 12:16:12;;;;;;;3.83;1.02;;;;;;;;;;5004549;28;20670;-62
2022/12/23 12:18:40;;;;;;;3.63;1.00;;;;;;;;;;4999726;28;20052;-64
2022/12/23 12:21:13;;;;;;;2.80;1.00;;;;;;;;;;5009226;28;20065;-63
2022/12/23 12:23:41;;;;;;;2.08;0.80;;;;;;;;;;5001400;28;20107;-63
2022/12/23 12:26:35;;;;;;;1.33;0.82;;;;;;;;;;5004268;28;20482;-64
2022/12/23 12:29:15;;;;;;;5.50;0.90;;;;;;;;;;5008750;28;20049;-62
2022/12/23 12:31:53;;;;;;;2.38;1.00;;;;;;;;;;5005390;28;20054;-61
2022/12/23 12:34:34;;;;;;;0.95;0.80;;;;;;;;;;5005005;28;20050;-62
2022/12/23 12:37:20;;;;;;;3.00;1.25;;;;;;;;;;5003700;28;20053;-65
2022/12/23 12:40:12;;;;;;;1.52;1.00;;;;;;;;;;4995809;28;20074;-62
2022/12/23 12:42:46;;;;;;;3.08;0.90;;;;;;;;;;4985487;28;20261;-62
2022/12/23 12:45:38;;;;;;;5.22;1.20;;;;;;;;;;4992419;28;20103;-66
2022/12/23 12:48:41;;;;;;;2.78;1.15;;;;;;;;;;5002444;28;20284;-61
2022/12/23 12:51:10;;;;;;;2.55;1.38;;;;;;;;;;4998994;28;20056;-62
2022/12/23 12:53:51;;;;;;;2.58;1.27;;;;;;;;;;5000799;28;20049;-61
2022/12/23 12:56:26;;;;;;;3.72;1.20;;;;;;;;;;5007161;28;20061;-62
2022/12/23 12:58:52;;;;;;;2.65;1.00;;;;;;;;;;5005338;28;20413;-62
2022/12/23 13:01:42;;;;;;;2.22;1.23;;;;;;;;;;4999235;28;20042;-63
2022/12/23 13:04:26;;;;;;;2.85;1.40;;;;;;;;;;5003126;28;20058;-63
2022/12/23 13:06:59;;;;;;;6.27;1.30;;;;;;;;;;4996700;28;20461;-64
2022/12/23 13:09:41;;;;;;;3.05;1.10;;;;;;;;;;5002951;28;20125;-60
2022/12/23 13:12:25;;;;;;;2.88;1.33;;;;;;;;;;5006606;28;20050;-61
2022/12/23 13:15:12;;;;;;;2.78;1.30;;;;;;;;;;5005478;28;20054;-61
2022/12/23 13:17:49;;;;;;;3.15;1.30;;;;;;;;;;5004914;28;20670;-63
2022/12/23 13:20:15;;;;;;;3.03;1.20;;;;;;;;;;4994244;28;20046;-64
2022/12/23 13:22:45;;;;;;;5.80;1.20;;;;;;;;;;4994915;28;20057;-60
2022/12/23 13:25:20;;;;;;;2.08;1.30;;;;;;;;;;5004594;28;20046;-66
2022/12/23 13:27:57;;;;;;;2.97;1.20;;;;;;;;;;4999483;28;20477;-62
2022/12/23 13:30:27;;;;;;;2.13;1.20;;;;;;;;;;4999373;28;20055;-64
2022/12/23 13:33:05;;;;;;;2.55;1.50;;;;;;;;;;4993531;28;20065;-65
2022/12/23 13:35:34;;;;;;;1.50;1.25;;;;;;;;;;4999802;28;20061;-65
2022/12/23 13:38:27;;;;;;;1.63;1.02;;;;;;;;;;5004039;28;20042;-63
2022/12/23 13:41:15;;;;;;;3.22;1.30;;;;;;;;;;4999868;28;20049;-62
2022/12/23 13:43:52;;;;;;;4.20;1.30;;;;;;;;;;5000307;28;20061;-62
2022/12/23 13:46:36;;;;;;;4.32;1.90;;;;;;;;;;5004470;28;20437;-61
2022/12/23 13:49:07;;;;;;;3.13;1.17;;;;;;;;;;5006424;28;20045;-65
2022/12/23 13:51:49;;;;;;;3.25;1.30;;;;;;;;;;5001681;28;20062;-63
2022/12/23 13:54:26;;;;;;;3.20;1.40;;;;;;;;;;5000957;28;20054;-67
2022/12/23 13:57:10;;;;;;;1.90;1.08;;;;;;;;;;5006837;28;20060;-63
2022/12/23 13:59:43;;;;;;;3.65;1.35;;;;;;;;;;5000729;28;20054;-64
2022/12/23 14:02:34;;;;;;;2.47;1.17;;;;;;;;;;5005364;28;20042;-63
2022/12/23 14:05:00;;;;;;;3.13;1.60;;;;;;;;;;5002157;28;20062;-62
2022/12/23 14:07:29;;;;;;;2.80;1.17;;;;;;;;;;5010528;28;20060;-62
2022/12/23 14:09:58;;;;;;;6.68;1.45;;;;;;;;;;5001886;28;20512;-64
2022/12/23 14:12:41;;;;;;;3.17;1.10;;;;;;;;;;5004268;28;20480;-64
2022/12/23 14:15:33;;;;;;;1.10;0.95;;;;;;;;;;5004334;28;20045;-61
2022/12/23 14:18:18;;;;;;;3.17;1.20;;;;;;;;;;5001032;28;20058;-64
2022/12/23 14:21:05;;;;;;;1.92;1.27;;;;;;;;;;5004379;28;20251;-66
2022/12/23 14:23:49;;;;;;;4.43;1.30;;;;;;;;;;5000515;28;20050;-62
2022/12/23 14:26:48;;;;;;;6.50;1.40;;;;;;;;;;4991047;28;20056;-63
2022/12/23 14:29:48;;;;;;;2.78;1.05;;;;;;;;;;4988163;28;20061;-65
2022/12/23 14:32:20;;;;;;;3.45;1.33;;;;;;;;;;4940112;28;20249;-66
2022/12/23 14:35:10;;;;;;;3.77;1.27;;;;;;;;;;4944675;28;20511;-63
2022/12/23 14:37:36;;;;;;;5.15;1.23;;;;;;;;;;4943621;28;20055;-62
2022/12/23 14:40:35;;;;;;;6.07;1.50;;;;;;;;;;4945851;28;20054;-66
2022/12/23 14:43:26;;;;;;;3.03;1.52;;;;;;;;;;4941315;28;20142;-64
2022/12/23 14:45:54;;;;;;;5.43;1.73;;;;;;;;;;4934690;28;20055;-66
2022/12/23 14:48:34;;;;;;;6.03;1.30;;;;;;;;;;4941166;28;20071;-65
2022/12/23 14:51:19;;;;;;;3.30;1.40;;;;;;;;;;4940064;28;20396;-64
2022/12/23 14:54:05;;;;;;;2.00;1.10;;;;;;;;;;4935453;28;20078;-62
2022/12/23 14:56:37;;;;;;;2.17;1.52;;;;;;;;;;4935718;28;20063;-62
2022/12/23 14:59:28;;;;;;;2.42;1.17;;;;;;;;;;4935028;28;20145;-64
2022/12/23 15:02:00;;;;;;;5.22;1.20;;;;;;;;;;4937173;28;20064;-61
2022/12/23 15:04:33;;;;;;;6.82;1.30;;;;;;;;;;4942122;28;20182;-62
2022/12/23 15:07:13;;;;;;;3.08;1.13;;;;;;;;;;4940321;28;20052;-65
2022/12/23 15:10:11;;;;;;;3.58;1.40;;;;;;;;;;4977599;28;20078;-65
2022/12/23 15:12:45;;;;;;;5.47;1.08;;;;;;;;;;4976262;28;20046;-66
2022/12/23 15:15:15;;;;;;;4.00;1.40;;;;;;;;;;5000542;28;20052;-62
2022/12/23 15:17:42;;;;;;;2.15;1.30;;;;;;;;;;4997478;28;20319;-62
2022/12/23 15:20:24;;;;;;;2.42;1.42;;;;;;;;;;4994036;28;20124;-66
2022/12/23 15:22:51;;;;;;;3.45;1.27;;;;;;;;;;4995481;28;20050;-63
2022/12/23 15:25:24;;;;;;;2.78;1.30;;;;;;;;;;4977136;28;20056;-65
2022/12/23 15:27:52;;;;;;;2.60;1.33;;;;;;;;;;5000215;28;20053;-62
2022/12/23 15:30:18;;;;;;;3.05;1.25;;;;;;;;;;4999191;28;20046;-64
2022/12/23 15:32:48;;;;;;;2.35;1.38;;;;;;;;;;5002634;28;20168;-65
2022/12/23 15:35:23;;;;;;;4.97;1.45;;;;;;;;;;4996350;28;20552;-62
2022/12/23 15:37:50;;;;;;;4.90;1.77;;;;;;;;;;4977572;28;20573;-61
2022/12/23 15:40:29;;;;;;;3.90;1.60;;;;;;;;;;4992607;28;20141;-64
2022/12/23 15:42:56;;;;;;;6.00;1.90;;;;;;;;;;4997773;28;20054;-63
2022/12/23 15:45:22;;;;;;;3.03;1.38;;;;;;;;;;4996010;28;20072;-63
2022/12/23 15:47:49;;;;;;;3.13;1.40;;;;;;;;;;5004318;28;20500;-64